sensor_id;sensor_type;location;lat;lon;timestamp;P1;durP1;ratioP1;P2;durP2;ratioP2
6015;SDS011;3036;49.960;8.454;2023-04-25T00:00:28;0.93;;;0.93;;
6015;SDS011;3036;49.960;8.454;2023-04-25T00:02:55;1.13;;;1.03;;
6015;SDS011;3036;49.960;8.454;2023-04-25T00:05:25;1.00;;;1.00;;
6015;SDS011;3036;49.960;8.454;2023-04-25T00:07:52;1.43;;;1.33;;
6015;SDS011;3036;49.960;8.454;2023-04-25T00:10:20;1.17;;;1.10;;
6015;SDS011;3036;49.960;8.454;2023-04-25T00:12:47;1.20;;;1.10;;
6015;SDS011;3036;49.960;8.454;2023-04-25T00:15:14;1.60;;;1.50;;
6015;SDS011;3036;49.960;8.454;2023-04-25T00:17:42;1.30;;;1.27;;
6015;SDS011;3036;49.960;8.454;2023-04-25T00:20:11;1.10;;;1.10;;
6015;SDS011;3036;49.960;8.454;2023-04-25T00:22:38;1.07;;;1.03;;
6015;SDS011;3036;49.960;8.454;2023-04-25T00:25:05;1.10;;;1.10;;
6015;SDS011;3036;49.960;8.454;2023-04-25T00:27:34;1.30;;;1.30;;
6015;SDS011;3036;49.960;8.454;2023-04-25T00:30:01;3.67;;;1.80;;
6015;SDS011;3036;49.960;8.454;2023-04-25T00:32:28;1.67;;;1.57;;
6015;SDS011;3036;49.960;8.454;2023-04-25T00:34:55;1.30;;;1.30;;
6015;SDS011;3036;49.960;8.454;2023-04-25T00:37:23;1.50;;;1.40;;
6015;SDS011;3036;49.960;8.454;2023-04-25T00:39:50;1.53;;;1.53;;
6015;SDS011;3036;49.960;8.454;2023-04-25T00:42:18;2.27;;;1.93;;
6015;SDS011;3036;49.960;8.454;2023-04-25T00:44:47;2.40;;;1.60;;
6015;SDS011;3036;49.960;8.454;2023-04-25T00:47:14;1.67;;;1.57;;
6015;SDS011;3036;49.960;8.454;2023-04-25T00:49:41;2.13;;;1.30;;
6015;SDS011;3036;49.960;8.454;2023-04-25T00:52:09;1.60;;;1.50;;
6015;SDS011;3036;49.960;8.454;2023-04-25T00:54:36;1.70;;;1.63;;
6015;SDS011;3036;49.960;8.454;2023-04-25T00:57:03;1.80;;;1.70;;
6015;SDS011;3036;49.960;8.454;2023-04-25T00:59:30;1.70;;;1.60;;
6015;SDS011;3036;49.960;8.454;2023-04-25T01:01:59;1.83;;;1.73;;
6015;SDS011;3036;49.960;8.454;2023-04-25T01:04:26;1.93;;;1.83;;
6015;SDS011;3036;49.960;8.454;2023-04-25T01:06:54;1.97;;;1.87;;
6015;SDS011;3036;49.960;8.454;2023-04-25T01:09:22;1.33;;;1.23;;
6015;SDS011;3036;49.960;8.454;2023-04-25T01:11:49;1.73;;;1.63;;
6015;SDS011;3036;49.960;8.454;2023-04-25T01:14:16;2.33;;;1.77;;
6015;SDS011;3036;49.960;8.454;2023-04-25T01:16:44;1.83;;;1.73;;
6015;SDS011;3036;49.960;8.454;2023-04-25T01:19:12;3.93;;;2.00;;
6015;SDS011;3036;49.960;8.454;2023-04-25T01:21:44;1.60;;;1.60;;
6015;SDS011;3036;49.960;8.454;2023-04-25T01:24:11;1.70;;;1.40;;
6015;SDS011;3036;49.960;8.454;2023-04-25T01:26:39;2.07;;;1.97;;
6015;SDS011;3036;49.960;8.454;2023-04-25T01:29:09;1.87;;;1.77;;
6015;SDS011;3036;49.960;8.454;2023-04-25T01:34:53;1.87;;;1.77;;
6015;SDS011;3036;49.960;8.454;2023-04-25T01:37:22;2.37;;;1.70;;
6015;SDS011;3036;49.960;8.454;2023-04-25T01:39:49;2.00;;;1.90;;
6015;SDS011;3036;49.960;8.454;2023-04-25T01:42:16;1.43;;;1.33;;
6015;SDS011;3036;49.960;8.454;2023-04-25T01:44:43;2.77;;;1.90;;
6015;SDS011;3036;49.960;8.454;2023-04-25T01:47:10;2.70;;;1.60;;
6015;SDS011;3036;49.960;8.454;2023-04-25T01:49:37;1.90;;;1.80;;
6015;SDS011;3036;49.960;8.454;2023-04-25T01:52:04;2.00;;;1.90;;
6015;SDS011;3036;49.960;8.454;2023-04-25T01:54:32;3.57;;;2.03;;
6015;SDS011;3036;49.960;8.454;2023-04-25T01:56:59;2.07;;;1.77;;
6015;SDS011;3036;49.960;8.454;2023-04-25T01:59:26;1.50;;;1.40;;
6015;SDS011;3036;49.960;8.454;2023-04-25T02:01:53;1.70;;;1.60;;
6015;SDS011;3036;49.960;8.454;2023-04-25T02:04:20;3.60;;;1.83;;
6015;SDS011;3036;49.960;8.454;2023-04-25T02:06:47;1.90;;;1.80;;
6015;SDS011;3036;49.960;8.454;2023-04-25T02:09:14;1.90;;;1.80;;
6015;SDS011;3036;49.960;8.454;2023-04-25T02:11:43;1.33;;;1.33;;
6015;SDS011;3036;49.960;8.454;2023-04-25T02:14:10;1.77;;;1.67;;
6015;SDS011;3036;49.960;8.454;2023-04-25T02:16:37;1.60;;;1.50;;
6015;SDS011;3036;49.960;8.454;2023-04-25T02:19:04;2.10;;;2.00;;
6015;SDS011;3036;49.960;8.454;2023-04-25T02:21:31;1.47;;;1.37;;
6015;SDS011;3036;49.960;8.454;2023-04-25T02:24:00;1.70;;;1.60;;
6015;SDS011;3036;49.960;8.454;2023-04-25T02:26:27;4.10;;;1.97;;
6015;SDS011;3036;49.960;8.454;2023-04-25T02:28:56;1.83;;;1.73;;
6015;SDS011;3036;49.960;8.454;2023-04-25T02:31:23;1.90;;;1.80;;
6015;SDS011;3036;49.960;8.454;2023-04-25T02:33:50;1.87;;;1.77;;
6015;SDS011;3036;49.960;8.454;2023-04-25T02:36:18;1.40;;;1.40;;
6015;SDS011;3036;49.960;8.454;2023-04-25T02:38:45;1.90;;;1.80;;
6015;SDS011;3036;49.960;8.454;2023-04-25T02:41:12;2.07;;;1.87;;
6015;SDS011;3036;49.960;8.454;2023-04-25T02:43:39;1.50;;;1.37;;
6015;SDS011;3036;49.960;8.454;2023-04-25T02:46:07;2.33;;;1.57;;
6015;SDS011;3036;49.960;8.454;2023-04-25T02:48:34;2.23;;;2.13;;
6015;SDS011;3036;49.960;8.454;2023-04-25T02:51:01;1.97;;;1.53;;
6015;SDS011;3036;49.960;8.454;2023-04-25T02:53:28;1.97;;;1.87;;
6015;SDS011;3036;49.960;8.454;2023-04-25T02:55:55;1.87;;;1.77;;
6015;SDS011;3036;49.960;8.454;2023-04-25T02:58:24;2.00;;;1.90;;
6015;SDS011;3036;49.960;8.454;2023-04-25T03:00:51;4.57;;;1.90;;
6015;SDS011;3036;49.960;8.454;2023-04-25T03:03:19;2.27;;;2.07;;
6015;SDS011;3036;49.960;8.454;2023-04-25T03:05:46;2.13;;;2.03;;
6015;SDS011;3036;49.960;8.454;2023-04-25T03:08:13;1.97;;;1.87;;
6015;SDS011;3036;49.960;8.454;2023-04-25T03:10:41;1.83;;;1.83;;
6015;SDS011;3036;49.960;8.454;2023-04-25T03:13:08;1.83;;;1.77;;
6015;SDS011;3036;49.960;8.454;2023-04-25T03:15:35;2.50;;;2.30;;
6015;SDS011;3036;49.960;8.454;2023-04-25T03:18:02;3.10;;;1.70;;
6015;SDS011;3036;49.960;8.454;2023-04-25T03:20:31;2.73;;;2.00;;
6015;SDS011;3036;49.960;8.454;2023-04-25T03:22:58;1.60;;;1.50;;
6015;SDS011;3036;49.960;8.454;2023-04-25T03:25:25;1.73;;;1.63;;
6015;SDS011;3036;49.960;8.454;2023-04-25T03:27:52;4.40;;;2.43;;
6015;SDS011;3036;49.960;8.454;2023-04-25T03:30:19;2.07;;;1.97;;
6015;SDS011;3036;49.960;8.454;2023-04-25T03:32:46;2.10;;;2.00;;
6015;SDS011;3036;49.960;8.454;2023-04-25T03:35:13;2.87;;;2.43;;
6015;SDS011;3036;49.960;8.454;2023-04-25T03:37:41;2.50;;;2.30;;
6015;SDS011;3036;49.960;8.454;2023-04-25T03:40:10;2.47;;;2.30;;
6015;SDS011;3036;49.960;8.454;2023-04-25T03:42:37;4.97;;;2.80;;
6015;SDS011;3036;49.960;8.454;2023-04-25T03:45:05;2.30;;;2.10;;
6015;SDS011;3036;49.960;8.454;2023-04-25T03:47:32;3.47;;;2.10;;
6015;SDS011;3036;49.960;8.454;2023-04-25T03:49:59;2.47;;;2.00;;
6015;SDS011;3036;49.960;8.454;2023-04-25T03:52:27;2.67;;;2.37;;
6015;SDS011;3036;49.960;8.454;2023-04-25T03:54:56;3.43;;;1.80;;
6015;SDS011;3036;49.960;8.454;2023-04-25T03:57:23;2.20;;;1.73;;
6015;SDS011;3036;49.960;8.454;2023-04-25T03:59:50;2.30;;;2.20;;
6015;SDS011;3036;49.960;8.454;2023-04-25T04:02:17;2.67;;;2.50;;
6015;SDS011;3036;49.960;8.454;2023-04-25T04:04:44;3.10;;;2.80;;
6015;SDS011;3036;49.960;8.454;2023-04-25T04:07:11;3.70;;;3.30;;
6015;SDS011;3036;49.960;8.454;2023-04-25T04:09:38;4.17;;;2.67;;
6015;SDS011;3036;49.960;8.454;2023-04-25T04:12:07;2.60;;;2.40;;
6015;SDS011;3036;49.960;8.454;2023-04-25T04:14:34;4.33;;;2.73;;
6015;SDS011;3036;49.960;8.454;2023-04-25T04:17:01;3.50;;;2.83;;
6015;SDS011;3036;49.960;8.454;2023-04-25T04:19:28;3.40;;;3.10;;
6015;SDS011;3036;49.960;8.454;2023-04-25T04:21:55;6.40;;;3.80;;
6015;SDS011;3036;49.960;8.454;2023-04-25T04:24:22;3.90;;;3.47;;
6015;SDS011;3036;49.960;8.454;2023-04-25T04:26:50;6.73;;;3.67;;
6015;SDS011;3036;49.960;8.454;2023-04-25T04:29:18;3.40;;;2.93;;
6015;SDS011;3036;49.960;8.454;2023-04-25T04:31:47;2.83;;;2.57;;
6015;SDS011;3036;49.960;8.454;2023-04-25T04:34:14;4.83;;;3.07;;
6015;SDS011;3036;49.960;8.454;2023-04-25T04:36:42;5.93;;;3.33;;
6015;SDS011;3036;49.960;8.454;2023-04-25T04:39:11;3.43;;;2.83;;
6015;SDS011;3036;49.960;8.454;2023-04-25T04:41:38;4.77;;;2.77;;
6015;SDS011;3036;49.960;8.454;2023-04-25T04:44:05;2.47;;;2.03;;
6015;SDS011;3036;49.960;8.454;2023-04-25T04:46:35;2.53;;;2.33;;
6015;SDS011;3036;49.960;8.454;2023-04-25T04:49:06;3.20;;;2.07;;
6015;SDS011;3036;49.960;8.454;2023-04-25T04:51:33;4.10;;;2.80;;
6015;SDS011;3036;49.960;8.454;2023-04-25T04:54:01;3.50;;;2.10;;
6015;SDS011;3036;49.960;8.454;2023-04-25T04:56:29;5.70;;;2.13;;
6015;SDS011;3036;49.960;8.454;2023-04-25T04:58:56;2.10;;;1.80;;
6015;SDS011;3036;49.960;8.454;2023-04-25T05:01:24;2.87;;;1.73;;
6015;SDS011;3036;49.960;8.454;2023-04-25T05:03:52;3.73;;;1.80;;
6015;SDS011;3036;49.960;8.454;2023-04-25T05:06:24;5.20;;;2.43;;
6015;SDS011;3036;49.960;8.454;2023-04-25T05:08:51;6.20;;;2.07;;
6015;SDS011;3036;49.960;8.454;2023-04-25T05:11:18;1.97;;;1.87;;
6015;SDS011;3036;49.960;8.454;2023-04-25T05:13:46;2.23;;;2.03;;
6015;SDS011;3036;49.960;8.454;2023-04-25T05:16:13;2.93;;;2.30;;
6015;SDS011;3036;49.960;8.454;2023-04-25T05:18:40;2.33;;;2.23;;
6015;SDS011;3036;49.960;8.454;2023-04-25T05:21:08;7.87;;;2.57;;
6015;SDS011;3036;49.960;8.454;2023-04-25T05:23:35;5.07;;;2.07;;
6015;SDS011;3036;49.960;8.454;2023-04-25T05:26:03;8.50;;;3.07;;
6015;SDS011;3036;49.960;8.454;2023-04-25T05:28:30;3.97;;;2.37;;
6015;SDS011;3036;49.960;8.454;2023-04-25T05:30:57;8.17;;;2.77;;
6015;SDS011;3036;49.960;8.454;2023-04-25T05:33:25;5.77;;;3.10;;
6015;SDS011;3036;49.960;8.454;2023-04-25T05:35:52;6.77;;;2.70;;
6015;SDS011;3036;49.960;8.454;2023-04-25T05:38:20;4.60;;;2.50;;
6015;SDS011;3036;49.960;8.454;2023-04-25T05:40:47;4.97;;;2.63;;
6015;SDS011;3036;49.960;8.454;2023-04-25T05:43:14;6.13;;;2.67;;
6015;SDS011;3036;49.960;8.454;2023-04-25T05:45:41;3.00;;;2.43;;
6015;SDS011;3036;49.960;8.454;2023-04-25T05:48:08;2.60;;;2.40;;
6015;SDS011;3036;49.960;8.454;2023-04-25T05:50:35;3.80;;;1.80;;
6015;SDS011;3036;49.960;8.454;2023-04-25T05:53:02;4.40;;;2.17;;
6015;SDS011;3036;49.960;8.454;2023-04-25T05:55:32;4.07;;;2.33;;
6015;SDS011;3036;49.960;8.454;2023-04-25T05:57:59;2.37;;;2.17;;
6015;SDS011;3036;49.960;8.454;2023-04-25T06:00:26;2.30;;;1.70;;
6015;SDS011;3036;49.960;8.454;2023-04-25T06:02:53;4.40;;;1.73;;
6015;SDS011;3036;49.960;8.454;2023-04-25T06:05:20;5.23;;;2.10;;
6015;SDS011;3036;49.960;8.454;2023-04-25T06:07:47;4.63;;;1.90;;
6015;SDS011;3036;49.960;8.454;2023-04-25T06:10:14;2.73;;;1.53;;
6015;SDS011;3036;49.960;8.454;2023-04-25T06:12:43;3.70;;;2.20;;
6015;SDS011;3036;49.960;8.454;2023-04-25T06:15:10;1.70;;;1.60;;
6015;SDS011;3036;49.960;8.454;2023-04-25T06:17:37;1.77;;;1.50;;
6015;SDS011;3036;49.960;8.454;2023-04-25T06:20:05;1.63;;;1.40;;
6015;SDS011;3036;49.960;8.454;2023-04-25T06:22:32;5.20;;;2.10;;
6015;SDS011;3036;49.960;8.454;2023-04-25T06:24:59;1.60;;;1.40;;
6015;SDS011;3036;49.960;8.454;2023-04-25T06:27:28;1.77;;;1.07;;
6015;SDS011;3036;49.960;8.454;2023-04-25T06:29:57;1.77;;;1.50;;
6015;SDS011;3036;49.960;8.454;2023-04-25T06:32:24;2.20;;;1.80;;
6015;SDS011;3036;49.960;8.454;2023-04-25T06:34:52;2.17;;;1.50;;
6015;SDS011;3036;49.960;8.454;2023-04-25T06:37:19;1.67;;;1.57;;
6015;SDS011;3036;49.960;8.454;2023-04-25T06:39:46;2.23;;;1.77;;
6015;SDS011;3036;49.960;8.454;2023-04-25T06:42:13;1.90;;;1.33;;
6015;SDS011;3036;49.960;8.454;2023-04-25T06:44:40;3.00;;;1.60;;
6015;SDS011;3036;49.960;8.454;2023-04-25T06:47:09;1.67;;;1.53;;
6015;SDS011;3036;49.960;8.454;2023-04-25T06:49:36;2.27;;;1.83;;
6015;SDS011;3036;49.960;8.454;2023-04-25T06:52:03;2.90;;;1.73;;
6015;SDS011;3036;49.960;8.454;2023-04-25T06:54:30;2.57;;;2.07;;
6015;SDS011;3036;49.960;8.454;2023-04-25T06:56:57;5.23;;;1.97;;
6015;SDS011;3036;49.960;8.454;2023-04-25T06:59:25;2.37;;;1.43;;
6015;SDS011;3036;49.960;8.454;2023-04-25T07:01:52;2.30;;;2.03;;
6015;SDS011;3036;49.960;8.454;2023-04-25T07:04:21;2.30;;;1.90;;
6015;SDS011;3036;49.960;8.454;2023-04-25T07:06:48;3.67;;;1.73;;
6015;SDS011;3036;49.960;8.454;2023-04-25T07:09:15;1.60;;;1.50;;
6015;SDS011;3036;49.960;8.454;2023-04-25T07:11:42;1.80;;;1.70;;
6015;SDS011;3036;49.960;8.454;2023-04-25T07:14:09;4.23;;;1.80;;
6015;SDS011;3036;49.960;8.454;2023-04-25T07:16:36;3.10;;;2.03;;
6015;SDS011;3036;49.960;8.454;2023-04-25T07:19:03;4.60;;;2.23;;
6015;SDS011;3036;49.960;8.454;2023-04-25T07:21:32;4.20;;;1.87;;
6015;SDS011;3036;49.960;8.454;2023-04-25T07:23:59;7.90;;;2.10;;
6015;SDS011;3036;49.960;8.454;2023-04-25T07:26:26;3.17;;;2.00;;
6015;SDS011;3036;49.960;8.454;2023-04-25T07:28:53;2.17;;;1.63;;
6015;SDS011;3036;49.960;8.454;2023-04-25T07:31:20;3.83;;;1.33;;
6015;SDS011;3036;49.960;8.454;2023-04-25T07:33:51;2.10;;;1.83;;
6015;SDS011;3036;49.960;8.454;2023-04-25T07:36:18;1.90;;;1.80;;
6015;SDS011;3036;49.960;8.454;2023-04-25T07:38:47;3.63;;;2.08;;
6015;SDS011;3036;49.960;8.454;2023-04-25T07:41:14;1.98;;;1.85;;
6015;SDS011;3036;49.960;8.454;2023-04-25T07:43:41;3.88;;;1.75;;
6015;SDS011;3036;49.960;8.454;2023-04-25T07:46:08;3.90;;;1.60;;
6015;SDS011;3036;49.960;8.454;2023-04-25T07:48:35;3.33;;;1.80;;
6015;SDS011;3036;49.960;8.454;2023-04-25T07:51:02;3.40;;;1.83;;
6015;SDS011;3036;49.960;8.454;2023-04-25T07:53:30;2.47;;;1.45;;
6015;SDS011;3036;49.960;8.454;2023-04-25T07:55:58;3.53;;;1.65;;
6015;SDS011;3036;49.960;8.454;2023-04-25T07:58:25;2.63;;;2.05;;
6015;SDS011;3036;49.960;8.454;2023-04-25T08:00:52;2.13;;;1.15;;
6015;SDS011;3036;49.960;8.454;2023-04-25T08:03:19;5.40;;;1.42;;
6015;SDS011;3036;49.960;8.454;2023-04-25T08:05:47;4.38;;;1.55;;
6015;SDS011;3036;49.960;8.454;2023-04-25T08:08:14;1.67;;;1.08;;
6015;SDS011;3036;49.960;8.454;2023-04-25T08:10:41;1.67;;;1.57;;
6015;SDS011;3036;49.960;8.454;2023-04-25T08:13:09;2.13;;;1.50;;
6015;SDS011;3036;49.960;8.454;2023-04-25T08:15:37;1.40;;;0.90;;
6015;SDS011;3036;49.960;8.454;2023-04-25T08:18:04;5.27;;;1.50;;
6015;SDS011;3036;49.960;8.454;2023-04-25T08:20:31;3.83;;;1.23;;
6015;SDS011;3036;49.960;8.454;2023-04-25T08:22:58;0.90;;;0.90;;
6015;SDS011;3036;49.960;8.454;2023-04-25T08:25:25;0.70;;;0.70;;
6015;SDS011;3036;49.960;8.454;2023-04-25T08:27:52;0.90;;;0.90;;
6015;SDS011;3036;49.960;8.454;2023-04-25T08:30:21;2.17;;;1.20;;
6015;SDS011;3036;49.960;8.454;2023-04-25T08:32:48;3.53;;;1.10;;
6015;SDS011;3036;49.960;8.454;2023-04-25T08:35:15;1.60;;;1.07;;
6015;SDS011;3036;49.960;8.454;2023-04-25T08:37:42;1.80;;;0.93;;
6015;SDS011;3036;49.960;8.454;2023-04-25T08:40:11;2.70;;;0.77;;
6015;SDS011;3036;49.960;8.454;2023-04-25T08:42:38;2.50;;;0.87;;
6015;SDS011;3036;49.960;8.454;2023-04-25T08:45:07;0.90;;;0.90;;
6015;SDS011;3036;49.960;8.454;2023-04-25T08:47:36;1.93;;;0.87;;
6015;SDS011;3036;49.960;8.454;2023-04-25T08:50:04;1.70;;;0.80;;
6015;SDS011;3036;49.960;8.454;2023-04-25T08:52:33;1.07;;;0.77;;
6015;SDS011;3036;49.960;8.454;2023-04-25T08:55:02;8.13;;;0.60;;
6015;SDS011;3036;49.960;8.454;2023-04-25T08:57:29;0.80;;;0.80;;
6015;SDS011;3036;49.960;8.454;2023-04-25T08:59:58;1.10;;;0.70;;
6015;SDS011;3036;49.960;8.454;2023-04-25T09:02:25;1.23;;;1.10;;
6015;SDS011;3036;49.960;8.454;2023-04-25T09:04:53;0.87;;;0.87;;
6015;SDS011;3036;49.960;8.454;2023-04-25T09:07:21;1.50;;;0.67;;
6015;SDS011;3036;49.960;8.454;2023-04-25T09:09:48;2.23;;;0.93;;
6015;SDS011;3036;49.960;8.454;2023-04-25T09:12:15;2.53;;;1.10;;
6015;SDS011;3036;49.960;8.454;2023-04-25T09:14:42;1.75;;;0.73;;
6015;SDS011;3036;49.960;8.454;2023-04-25T09:17:09;0.57;;;0.57;;
6015;SDS011;3036;49.960;8.454;2023-04-25T09:19:36;0.70;;;0.70;;
6015;SDS011;3036;49.960;8.454;2023-04-25T09:22:06;1.00;;;0.70;;
6015;SDS011;3036;49.960;8.454;2023-04-25T09:24:34;0.90;;;0.90;;
6015;SDS011;3036;49.960;8.454;2023-04-25T09:27:02;0.80;;;0.80;;
6015;SDS011;3036;49.960;8.454;2023-04-25T09:29:30;1.00;;;0.90;;
6015;SDS011;3036;49.960;8.454;2023-04-25T09:32:10;3.80;;;0.90;;
6015;SDS011;3036;49.960;8.454;2023-04-25T09:34:38;0.77;;;0.73;;
6015;SDS011;3036;49.960;8.454;2023-04-25T09:37:07;1.13;;;1.13;;
6015;SDS011;3036;49.960;8.454;2023-04-25T09:39:35;1.33;;;1.20;;
6015;SDS011;3036;49.960;8.454;2023-04-25T09:42:02;1.98;;;1.25;;
6015;SDS011;3036;49.960;8.454;2023-04-25T09:44:29;1.00;;;1.00;;
6015;SDS011;3036;49.960;8.454;2023-04-25T09:46:56;0.93;;;0.93;;
6015;SDS011;3036;49.960;8.454;2023-04-25T09:49:24;1.90;;;1.00;;
6015;SDS011;3036;49.960;8.454;2023-04-25T09:51:54;2.33;;;1.37;;
6015;SDS011;3036;49.960;8.454;2023-04-25T09:54:24;1.73;;;1.30;;
6015;SDS011;3036;49.960;8.454;2023-04-25T09:56:51;4.77;;;1.20;;
6015;SDS011;3036;49.960;8.454;2023-04-25T09:59:19;1.33;;;1.23;;
6015;SDS011;3036;49.960;8.454;2023-04-25T10:01:47;2.13;;;1.50;;
6015;SDS011;3036;49.960;8.454;2023-04-25T10:04:15;1.33;;;1.33;;
6015;SDS011;3036;49.960;8.454;2023-04-25T10:06:45;1.50;;;1.50;;
6015;SDS011;3036;49.960;8.454;2023-04-25T10:09:12;1.63;;;1.50;;
6015;SDS011;3036;49.960;8.454;2023-04-25T10:11:41;1.57;;;1.47;;
6015;SDS011;3036;49.960;8.454;2023-04-25T10:14:09;2.27;;;1.40;;
6015;SDS011;3036;49.960;8.454;2023-04-25T10:16:36;2.50;;;1.40;;
6015;SDS011;3036;49.960;8.454;2023-04-25T10:19:04;1.77;;;1.67;;
6015;SDS011;3036;49.960;8.454;2023-04-25T10:21:32;2.23;;;2.03;;
6015;SDS011;3036;49.960;8.454;2023-04-25T10:24:00;1.40;;;1.27;;
6015;SDS011;3036;49.960;8.454;2023-04-25T10:26:27;2.13;;;1.70;;
6015;SDS011;3036;49.960;8.454;2023-04-25T10:28:56;2.80;;;2.27;;
6015;SDS011;3036;49.960;8.454;2023-04-25T10:31:23;1.70;;;1.60;;
6015;SDS011;3036;49.960;8.454;2023-04-25T10:33:51;2.90;;;1.63;;
6015;SDS011;3036;49.960;8.454;2023-04-25T10:36:20;1.77;;;1.60;;
6015;SDS011;3036;49.960;8.454;2023-04-25T10:38:48;2.80;;;1.70;;
6015;SDS011;3036;49.960;8.454;2023-04-25T10:41:17;1.80;;;1.70;;
6015;SDS011;3036;49.960;8.454;2023-04-25T10:43:45;5.77;;;2.00;;
6015;SDS011;3036;49.960;8.454;2023-04-25T10:46:16;2.63;;;1.40;;
6015;SDS011;3036;49.960;8.454;2023-04-25T10:48:45;2.03;;;1.93;;
6015;SDS011;3036;49.960;8.454;2023-04-25T10:51:15;2.20;;;1.70;;
6015;SDS011;3036;49.960;8.454;2023-04-25T10:53:43;2.33;;;1.30;;
6015;SDS011;3036;49.960;8.454;2023-04-25T10:56:11;2.37;;;2.00;;
6015;SDS011;3036;49.960;8.454;2023-04-25T10:58:41;1.73;;;1.63;;
6015;SDS011;3036;49.960;8.454;2023-04-25T11:01:08;3.23;;;1.40;;
6015;SDS011;3036;49.960;8.454;2023-04-25T11:03:39;1.95;;;1.85;;
6015;SDS011;3036;49.960;8.454;2023-04-25T11:06:07;3.33;;;1.60;;
6015;SDS011;3036;49.960;8.454;2023-04-25T11:08:41;1.77;;;1.58;;
6015;SDS011;3036;49.960;8.454;2023-04-25T11:11:13;5.22;;;1.90;;
6015;SDS011;3036;49.960;8.454;2023-04-25T11:13:40;1.73;;;1.63;;
6015;SDS011;3036;49.960;8.454;2023-04-25T11:16:07;1.80;;;1.70;;
6015;SDS011;3036;49.960;8.454;2023-04-25T11:18:35;1.27;;;1.27;;
6015;SDS011;3036;49.960;8.454;2023-04-25T11:21:04;2.80;;;1.70;;
6015;SDS011;3036;49.960;8.454;2023-04-25T11:23:32;1.95;;;1.85;;
6015;SDS011;3036;49.960;8.454;2023-04-25T11:25:59;5.45;;;1.83;;
6015;SDS011;3036;49.960;8.454;2023-04-25T11:28:26;3.83;;;1.58;;
6015;SDS011;3036;49.960;8.454;2023-04-25T11:30:53;2.00;;;1.77;;
6015;SDS011;3036;49.960;8.454;2023-04-25T11:33:22;2.63;;;1.85;;
6015;SDS011;3036;49.960;8.454;2023-04-25T11:35:50;10.15;;;1.27;;
6015;SDS011;3036;49.960;8.454;2023-04-25T11:38:18;3.88;;;2.00;;
6015;SDS011;3036;49.960;8.454;2023-04-25T11:40:49;1.77;;;1.38;;
6015;SDS011;3036;49.960;8.454;2023-04-25T11:43:16;1.50;;;1.40;;
6015;SDS011;3036;49.960;8.454;2023-04-25T11:45:46;2.30;;;2.10;;
6015;SDS011;3036;49.960;8.454;2023-04-25T11:48:13;2.53;;;1.58;;
6015;SDS011;3036;49.960;8.454;2023-04-25T11:50:40;6.82;;;2.03;;
6015;SDS011;3036;49.960;8.454;2023-04-25T11:53:08;4.05;;;1.95;;
6015;SDS011;3036;49.960;8.454;2023-04-25T11:55:37;3.80;;;2.58;;
6015;SDS011;3036;49.960;8.454;2023-04-25T11:58:05;13.95;;;7.55;;
6015;SDS011;3036;49.960;8.454;2023-04-25T12:00:33;2.28;;;1.30;;
6015;SDS011;3036;49.960;8.454;2023-04-25T12:03:01;3.13;;;1.70;;
6015;SDS011;3036;49.960;8.454;2023-04-25T12:05:29;1.63;;;1.35;;
6015;SDS011;3036;49.960;8.454;2023-04-25T12:07:57;1.55;;;1.45;;
6015;SDS011;3036;49.960;8.454;2023-04-25T12:10:24;4.68;;;1.60;;
6015;SDS011;3036;49.960;8.454;2023-04-25T12:12:53;4.80;;;1.50;;
6015;SDS011;3036;49.960;8.454;2023-04-25T12:15:23;1.85;;;1.50;;
6015;SDS011;3036;49.960;8.454;2023-04-25T12:17:51;1.73;;;1.63;;
6015;SDS011;3036;49.960;8.454;2023-04-25T12:20:19;1.77;;;1.37;;
6015;SDS011;3036;49.960;8.454;2023-04-25T12:22:48;3.38;;;1.58;;
6015;SDS011;3036;49.960;8.454;2023-04-25T12:28:09;3.90;;;1.10;;
6015;SDS011;3036;49.960;8.454;2023-04-25T12:30:51;2.27;;;1.30;;
6015;SDS011;3036;49.960;8.454;2023-04-25T12:33:18;1.20;;;1.20;;
6015;SDS011;3036;49.960;8.454;2023-04-25T12:35:45;3.83;;;1.70;;
6015;SDS011;3036;49.960;8.454;2023-04-25T12:38:19;2.20;;;1.20;;
6015;SDS011;3036;49.960;8.454;2023-04-25T12:40:46;1.30;;;1.30;;
6015;SDS011;3036;49.960;8.454;2023-04-25T12:43:15;1.30;;;1.23;;
6015;SDS011;3036;49.960;8.454;2023-04-25T12:45:42;2.72;;;1.33;;
6015;SDS011;3036;49.960;8.454;2023-04-25T12:48:09;2.10;;;1.70;;
6015;SDS011;3036;49.960;8.454;2023-04-25T12:50:36;2.92;;;1.52;;
6015;SDS011;3036;49.960;8.454;2023-04-25T12:53:03;1.33;;;1.30;;
6015;SDS011;3036;49.960;8.454;2023-04-25T12:55:30;1.25;;;1.25;;
6015;SDS011;3036;49.960;8.454;2023-04-25T12:57:57;1.27;;;1.27;;
6015;SDS011;3036;49.960;8.454;2023-04-25T13:00:26;3.15;;;1.88;;
6015;SDS011;3036;49.960;8.454;2023-04-25T13:02:53;1.67;;;1.10;;
6015;SDS011;3036;49.960;8.454;2023-04-25T13:05:20;1.53;;;1.27;;
6015;SDS011;3036;49.960;8.454;2023-04-25T13:07:47;2.50;;;1.70;;
6015;SDS011;3036;49.960;8.454;2023-04-25T13:10:14;2.38;;;1.25;;
6015;SDS011;3036;49.960;8.454;2023-04-25T13:12:41;0.85;;;0.77;;
6015;SDS011;3036;49.960;8.454;2023-04-25T13:15:08;1.52;;;1.10;;
6015;SDS011;3036;49.960;8.454;2023-04-25T13:17:37;2.37;;;1.30;;
6015;SDS011;3036;49.960;8.454;2023-04-25T13:20:05;1.77;;;1.20;;
6015;SDS011;3036;49.960;8.454;2023-04-25T13:22:34;2.10;;;1.03;;
6015;SDS011;3036;49.960;8.454;2023-04-25T13:25:03;6.60;;;1.10;;
6015;SDS011;3036;49.960;8.454;2023-04-25T13:27:30;2.00;;;1.10;;
6015;SDS011;3036;49.960;8.454;2023-04-25T13:29:58;1.50;;;1.40;;
6015;SDS011;3036;49.960;8.454;2023-04-25T13:32:26;1.33;;;1.27;;
6015;SDS011;3036;49.960;8.454;2023-04-25T13:34:54;1.50;;;1.40;;
6015;SDS011;3036;49.960;8.454;2023-04-25T13:37:21;2.40;;;1.40;;
6015;SDS011;3036;49.960;8.454;2023-04-25T13:39:50;4.20;;;1.40;;
6015;SDS011;3036;49.960;8.454;2023-04-25T13:42:17;1.50;;;1.10;;
6015;SDS011;3036;49.960;8.454;2023-04-25T13:44:44;1.20;;;1.20;;
6015;SDS011;3036;49.960;8.454;2023-04-25T13:47:11;4.20;;;1.60;;
6015;SDS011;3036;49.960;8.454;2023-04-25T13:49:38;1.33;;;1.23;;
6015;SDS011;3036;49.960;8.454;2023-04-25T13:52:06;0.93;;;0.93;;
6015;SDS011;3036;49.960;8.454;2023-04-25T13:54:33;1.47;;;0.90;;
6015;SDS011;3036;49.960;8.454;2023-04-25T13:57:00;1.17;;;0.80;;
6015;SDS011;3036;49.960;8.454;2023-04-25T13:59:27;1.30;;;1.20;;
6015;SDS011;3036;49.960;8.454;2023-04-25T14:01:54;1.50;;;1.20;;
6015;SDS011;3036;49.960;8.454;2023-04-25T14:04:21;1.50;;;1.40;;
6015;SDS011;3036;49.960;8.454;2023-04-25T14:06:48;1.20;;;0.90;;
6015;SDS011;3036;49.960;8.454;2023-04-25T14:09:17;1.80;;;1.70;;
6015;SDS011;3036;49.960;8.454;2023-04-25T14:11:45;1.30;;;1.20;;
6015;SDS011;3036;49.960;8.454;2023-04-25T14:14:12;1.60;;;1.30;;
6015;SDS011;3036;49.960;8.454;2023-04-25T14:16:41;2.20;;;1.47;;
6015;SDS011;3036;49.960;8.454;2023-04-25T14:19:08;1.73;;;1.07;;
6015;SDS011;3036;49.960;8.454;2023-04-25T14:21:35;5.30;;;1.33;;
6015;SDS011;3036;49.960;8.454;2023-04-25T14:24:02;3.60;;;1.37;;
6015;SDS011;3036;49.960;8.454;2023-04-25T14:26:31;1.20;;;1.07;;
6015;SDS011;3036;49.960;8.454;2023-04-25T14:28:58;2.50;;;1.17;;
6015;SDS011;3036;49.960;8.454;2023-04-25T14:31:25;1.50;;;1.40;;
6015;SDS011;3036;49.960;8.454;2023-04-25T14:33:52;1.27;;;1.00;;
6015;SDS011;3036;49.960;8.454;2023-04-25T14:36:20;0.97;;;0.97;;
6015;SDS011;3036;49.960;8.454;2023-04-25T14:38:47;2.07;;;1.43;;
6015;SDS011;3036;49.960;8.454;2023-04-25T14:41:14;2.15;;;1.00;;
6015;SDS011;3036;49.960;8.454;2023-04-25T14:43:42;0.87;;;0.87;;
6015;SDS011;3036;49.960;8.454;2023-04-25T14:46:10;1.50;;;1.40;;
6015;SDS011;3036;49.960;8.454;2023-04-25T14:48:37;2.73;;;1.03;;
6015;SDS011;3036;49.960;8.454;2023-04-25T14:51:04;2.80;;;1.30;;
6015;SDS011;3036;49.960;8.454;2023-04-25T14:53:32;1.00;;;0.90;;
6015;SDS011;3036;49.960;8.454;2023-04-25T14:56:02;5.70;;;2.00;;
6015;SDS011;3036;49.960;8.454;2023-04-25T14:58:29;2.58;;;1.05;;
6015;SDS011;3036;49.960;8.454;2023-04-25T15:00:58;2.93;;;1.07;;
6015;SDS011;3036;49.960;8.454;2023-04-25T15:03:25;1.60;;;1.10;;
6015;SDS011;3036;49.960;8.454;2023-04-25T15:05:52;1.13;;;0.83;;
6015;SDS011;3036;49.960;8.454;2023-04-25T15:08:19;1.08;;;1.08;;
6015;SDS011;3036;49.960;8.454;2023-04-25T15:10:46;2.23;;;1.17;;
6015;SDS011;3036;49.960;8.454;2023-04-25T15:13:13;1.13;;;1.07;;
6015;SDS011;3036;49.960;8.454;2023-04-25T15:15:40;1.35;;;1.25;;
6015;SDS011;3036;49.960;8.454;2023-04-25T15:18:09;1.53;;;0.93;;
6015;SDS011;3036;49.960;8.454;2023-04-25T15:20:36;0.70;;;0.70;;
6015;SDS011;3036;49.960;8.454;2023-04-25T15:23:03;1.07;;;0.90;;